sensor_id;sensor_type;location;lat;lon;timestamp;temperature;humidity
53748;DHT22;39655;53.210;5.768;2022-08-07T00:00:10;15.50;75.30
53748;DHT22;39655;53.210;5.768;2022-08-07T00:02:36;15.40;75.20
53748;DHT22;39655;53.210;5.768;2022-08-07T00:05:03;15.40;75.20
53748;DHT22;39655;53.210;5.768;2022-08-07T00:07:28;15.40;75.40
53748;DHT22;39655;53.210;5.768;2022-08-07T00:09:54;15.30;75.50
53748;DHT22;39655;53.210;5.768;2022-08-07T00:12:20;15.30;75.70
53748;DHT22;39655;53.210;5.768;2022-08-07T00:14:45;15.20;75.60
53748;DHT22;39655;53.210;5.768;2022-08-07T00:17:11;15.20;75.70
53748;DHT22;39655;53.210;5.768;2022-08-07T00:19:37;15.20;75.90
53748;DHT22;39655;53.210;5.768;2022-08-07T00:22:03;15.10;76.20
53748;DHT22;39655;53.210;5.768;2022-08-07T00:24:28;15.10;76.50
53748;DHT22;39655;53.210;5.768;2022-08-07T00:26:54;15.10;76.70
53748;DHT22;39655;53.210;5.768;2022-08-07T00:29:20;15.00;76.90
53748;DHT22;39655;53.210;5.768;2022-08-07T00:31:51;15.00;76.80
53748;DHT22;39655;53.210;5.768;2022-08-07T00:34:17;14.90;76.80
53748;DHT22;39655;53.210;5.768;2022-08-07T00:36:43;14.90;76.70
53748;DHT22;39655;53.210;5.768;2022-08-07T00:39:10;14.80;76.50
53748;DHT22;39655;53.210;5.768;2022-08-07T00:41:35;14.80;76.50
53748;DHT22;39655;53.210;5.768;2022-08-07T00:44:01;14.80;76.70
53748;DHT22;39655;53.210;5.768;2022-08-07T00:46:27;14.70;76.60
53748;DHT22;39655;53.210;5.768;2022-08-07T00:48:53;14.70;76.70
53748;DHT22;39655;53.210;5.768;2022-08-07T00:51:19;14.70;76.70
53748;DHT22;39655;53.210;5.768;2022-08-07T00:53:44;14.70;76.80
53748;DHT22;39655;53.210;5.768;2022-08-07T00:56:10;14.70;76.80
53748;DHT22;39655;53.210;5.768;2022-08-07T00:58:40;14.70;76.80
53748;DHT22;39655;53.210;5.768;2022-08-07T01:01:07;14.60;76.80
53748;DHT22;39655;53.210;5.768;2022-08-07T01:03:32;14.60;77.10
53748;DHT22;39655;53.210;5.768;2022-08-07T01:05:58;14.60;77.10
53748;DHT22;39655;53.210;5.768;2022-08-07T01:08:25;14.60;77.30
53748;DHT22;39655;53.210;5.768;2022-08-07T01:10:51;14.60;77.20
53748;DHT22;39655;53.210;5.768;2022-08-07T01:13:17;14.60;77.20
53748;DHT22;39655;53.210;5.768;2022-08-07T01:15:45;14.60;77.00
53748;DHT22;39655;53.210;5.768;2022-08-07T01:18:12;14.50;77.00
53748;DHT22;39655;53.210;5.768;2022-08-07T01:20:49;14.50;77.10
53748;DHT22;39655;53.210;5.768;2022-08-07T01:23:17;14.50;77.30
53748;DHT22;39655;53.210;5.768;2022-08-07T01:25:43;14.40;77.40
53748;DHT22;39655;53.210;5.768;2022-08-07T01:28:09;14.40;77.80
53748;DHT22;39655;53.210;5.768;2022-08-07T01:30:36;14.40;78.50
53748;DHT22;39655;53.210;5.768;2022-08-07T01:33:03;14.30;78.40
53748;DHT22;39655;53.210;5.768;2022-08-07T01:35:31;14.30;78.70
53748;DHT22;39655;53.210;5.768;2022-08-07T01:37:57;14.30;78.70
53748;DHT22;39655;53.210;5.768;2022-08-07T01:40:24;14.20;78.60
53748;DHT22;39655;53.210;5.768;2022-08-07T01:42:50;14.20;78.60
53748;DHT22;39655;53.210;5.768;2022-08-07T01:45:16;14.20;78.60
53748;DHT22;39655;53.210;5.768;2022-08-07T01:47:45;14.20;78.60
53748;DHT22;39655;53.210;5.768;2022-08-07T01:50:11;14.20;78.50
53748;DHT22;39655;53.210;5.768;2022-08-07T01:52:38;14.10;78.50
53748;DHT22;39655;53.210;5.768;2022-08-07T01:55:07;14.10;78.20
53748;DHT22;39655;53.210;5.768;2022-08-07T01:57:34;14.10;78.30
53748;DHT22;39655;53.210;5.768;2022-08-07T02:00:06;14.10;78.40
53748;DHT22;39655;53.210;5.768;2022-08-07T02:02:41;14.10;78.10
53748;DHT22;39655;53.210;5.768;2022-08-07T02:05:10;14.10;78.00
53748;DHT22;39655;53.210;5.768;2022-08-07T02:07:42;14.10;77.90
53748;DHT22;39655;53.210;5.768;2022-08-07T02:10:12;14.10;77.90
53748;DHT22;39655;53.210;5.768;2022-08-07T02:12:41;14.10;78.30
53748;DHT22;39655;53.210;5.768;2022-08-07T02:15:09;14.00;78.20
53748;DHT22;39655;53.210;5.768;2022-08-07T02:17:37;14.00;78.50
53748;DHT22;39655;53.210;5.768;2022-08-07T02:20:04;14.00;78.30
53748;DHT22;39655;53.210;5.768;2022-08-07T02:22:31;14.00;78.40
53748;DHT22;39655;53.210;5.768;2022-08-07T02:24:58;14.00;78.50
53748;DHT22;39655;53.210;5.768;2022-08-07T02:27:25;14.00;78.70
53748;DHT22;39655;53.210;5.768;2022-08-07T02:29:53;14.00;78.70
53748;DHT22;39655;53.210;5.768;2022-08-07T02:32:21;13.90;78.70
53748;DHT22;39655;53.210;5.768;2022-08-07T02:34:48;13.90;78.80
53748;DHT22;39655;53.210;5.768;2022-08-07T02:37:16;13.90;79.10
53748;DHT22;39655;53.210;5.768;2022-08-07T02:39:45;13.90;79.30
53748;DHT22;39655;53.210;5.768;2022-08-07T02:42:12;13.90;79.20
53748;DHT22;39655;53.210;5.768;2022-08-07T02:44:43;13.90;79.40
53748;DHT22;39655;53.210;5.768;2022-08-07T02:47:09;13.80;79.60
53748;DHT22;39655;53.210;5.768;2022-08-07T02:49:36;13.80;79.70
53748;DHT22;39655;53.210;5.768;2022-08-07T02:52:04;13.80;80.20
53748;DHT22;39655;53.210;5.768;2022-08-07T02:54:34;13.70;80.20
53748;DHT22;39655;53.210;5.768;2022-08-07T02:57:02;13.80;80.60
53748;DHT22;39655;53.210;5.768;2022-08-07T02:59:30;13.70;80.50
53748;DHT22;39655;53.210;5.768;2022-08-07T03:01:57;13.70;80.50
53748;DHT22;39655;53.210;5.768;2022-08-07T03:04:24;13.70;80.90
53748;DHT22;39655;53.210;5.768;2022-08-07T03:06:51;13.70;81.00
53748;DHT22;39655;53.210;5.768;2022-08-07T03:09:17;13.70;81.00
53748;DHT22;39655;53.210;5.768;2022-08-07T03:11:45;13.70;81.10
53748;DHT22;39655;53.210;5.768;2022-08-07T03:14:12;13.70;81.20
53748;DHT22;39655;53.210;5.768;2022-08-07T03:16:39;13.70;81.40
53748;DHT22;39655;53.210;5.768;2022-08-07T03:19:05;13.60;81.60
53748;DHT22;39655;53.210;5.768;2022-08-07T03:21:32;13.60;81.90
53748;DHT22;39655;53.210;5.768;2022-08-07T03:23:58;13.60;82.00
53748;DHT22;39655;53.210;5.768;2022-08-07T03:26:27;13.60;81.90
53748;DHT22;39655;53.210;5.768;2022-08-07T03:28:57;13.60;81.80
53748;DHT22;39655;53.210;5.768;2022-08-07T03:31:24;13.60;82.10
53748;DHT22;39655;53.210;5.768;2022-08-07T03:33:59;13.60;82.00
53748;DHT22;39655;53.210;5.768;2022-08-07T03:36:26;13.50;82.00
53748;DHT22;39655;53.210;5.768;2022-08-07T03:38:59;13.40;82.30
53748;DHT22;39655;53.210;5.768;2022-08-07T03:41:27;13.50;83.00
53748;DHT22;39655;53.210;5.768;2022-08-07T03:43:54;13.40;83.00
53748;DHT22;39655;53.210;5.768;2022-08-07T03:46:20;13.40;82.60
53748;DHT22;39655;53.210;5.768;2022-08-07T03:48:47;13.40;82.70
53748;DHT22;39655;53.210;5.768;2022-08-07T03:51:14;13.40;82.80
53748;DHT22;39655;53.210;5.768;2022-08-07T03:53:40;13.40;83.00
53748;DHT22;39655;53.210;5.768;2022-08-07T03:56:06;13.40;83.00
53748;DHT22;39655;53.210;5.768;2022-08-07T03:58:35;13.40;83.00
53748;DHT22;39655;53.210;5.768;2022-08-07T04:01:03;13.40;83.30
53748;DHT22;39655;53.210;5.768;2022-08-07T04:03:29;13.30;83.30
53748;DHT22;39655;53.210;5.768;2022-08-07T04:05:55;13.30;83.20
53748;DHT22;39655;53.210;5.768;2022-08-07T04:08:20;13.30;83.40
53748;DHT22;39655;53.210;5.768;2022-08-07T04:10:47;13.20;83.50
53748;DHT22;39655;53.210;5.768;2022-08-07T04:13:13;13.20;83.90
53748;DHT22;39655;53.210;5.768;2022-08-07T04:15:40;13.20;84.10
53748;DHT22;39655;53.210;5.768;2022-08-07T04:18:06;13.20;84.10
53748;DHT22;39655;53.210;5.768;2022-08-07T04:20:32;13.10;84.00
53748;DHT22;39655;53.210;5.768;2022-08-07T04:22:58;13.10;84.00
53748;DHT22;39655;53.210;5.768;2022-08-07T04:25:24;13.10;84.00
53748;DHT22;39655;53.210;5.768;2022-08-07T04:27:51;13.10;84.30
53748;DHT22;39655;53.210;5.768;2022-08-07T04:30:16;13.10;84.60
53748;DHT22;39655;53.210;5.768;2022-08-07T04:32:43;13.10;84.50
53748;DHT22;39655;53.210;5.768;2022-08-07T04:35:18;13.10;84.40
53748;DHT22;39655;53.210;5.768;2022-08-07T04:37:43;13.10;84.60
53748;DHT22;39655;53.210;5.768;2022-08-07T04:40:10;13.20;84.70
53748;DHT22;39655;53.210;5.768;2022-08-07T04:42:35;13.20;84.60
53748;DHT22;39655;53.210;5.768;2022-08-07T04:45:02;13.20;84.60
53748;DHT22;39655;53.210;5.768;2022-08-07T04:47:40;13.20;84.60
53748;DHT22;39655;53.210;5.768;2022-08-07T04:50:12;13.20;84.90
53748;DHT22;39655;53.210;5.768;2022-08-07T04:52:45;13.20;85.20
53748;DHT22;39655;53.210;5.768;2022-08-07T05:01:01;13.30;85.40
53748;DHT22;39655;53.210;5.768;2022-08-07T05:03:48;13.40;85.20
53748;DHT22;39655;53.210;5.768;2022-08-07T05:06:24;13.40;85.40
53748;DHT22;39655;53.210;5.768;2022-08-07T05:09:12;13.50;85.40
53748;DHT22;39655;53.210;5.768;2022-08-07T05:11:44;13.50;85.20
53748;DHT22;39655;53.210;5.768;2022-08-07T05:14:23;13.60;85.00
53748;DHT22;39655;53.210;5.768;2022-08-07T05:16:52;13.60;84.70
53748;DHT22;39655;53.210;5.768;2022-08-07T05:19:23;13.60;84.40
53748;DHT22;39655;53.210;5.768;2022-08-07T05:21:53;13.60;84.20
53748;DHT22;39655;53.210;5.768;2022-08-07T05:24:21;13.70;84.20
53748;DHT22;39655;53.210;5.768;2022-08-07T05:26:51;13.70;84.10
53748;DHT22;39655;53.210;5.768;2022-08-07T05:29:19;13.70;83.80
53748;DHT22;39655;53.210;5.768;2022-08-07T05:31:47;13.80;83.60
53748;DHT22;39655;53.210;5.768;2022-08-07T05:34:15;13.80;83.10
53748;DHT22;39655;53.210;5.768;2022-08-07T05:36:43;13.80;82.70
53748;DHT22;39655;53.210;5.768;2022-08-07T05:39:10;13.90;82.60
53748;DHT22;39655;53.210;5.768;2022-08-07T05:41:38;13.90;82.30
53748;DHT22;39655;53.210;5.768;2022-08-07T05:44:04;14.00;82.20
53748;DHT22;39655;53.210;5.768;2022-08-07T05:46:30;14.10;82.10
53748;DHT22;39655;53.210;5.768;2022-08-07T05:48:57;14.10;82.00
53748;DHT22;39655;53.210;5.768;2022-08-07T05:51:24;14.20;82.00
53748;DHT22;39655;53.210;5.768;2022-08-07T05:53:49;14.20;82.00
53748;DHT22;39655;53.210;5.768;2022-08-07T05:56:17;14.20;81.90
53748;DHT22;39655;53.210;5.768;2022-08-07T05:58:44;14.30;81.80
53748;DHT22;39655;53.210;5.768;2022-08-07T06:01:12;14.40;81.70
53748;DHT22;39655;53.210;5.768;2022-08-07T06:03:42;14.40;81.50
53748;DHT22;39655;53.210;5.768;2022-08-07T06:06:10;14.50;81.70
53748;DHT22;39655;53.210;5.768;2022-08-07T06:08:38;14.50;81.70
53748;DHT22;39655;53.210;5.768;2022-08-07T06:11:05;14.60;81.70
53748;DHT22;39655;53.210;5.768;2022-08-07T06:13:31;14.60;81.60
53748;DHT22;39655;53.210;5.768;2022-08-07T06:15:57;14.70;81.70
53748;DHT22;39655;53.210;5.768;2022-08-07T06:18:23;14.70;81.30
53748;DHT22;39655;53.210;5.768;2022-08-07T06:20:50;14.80;81.30
53748;DHT22;39655;53.210;5.768;2022-08-07T06:23:17;14.90;81.30
53748;DHT22;39655;53.210;5.768;2022-08-07T06:25:43;14.90;81.10
53748;DHT22;39655;53.210;5.768;2022-08-07T06:28:09;15.00;80.70
53748;DHT22;39655;53.210;5.768;2022-08-07T06:30:36;15.10;80.50
53748;DHT22;39655;53.210;5.768;2022-08-07T06:33:03;15.10;80.10
53748;DHT22;39655;53.210;5.768;2022-08-07T06:35:29;15.20;80.10
53748;DHT22;39655;53.210;5.768;2022-08-07T06:37:54;15.20;80.00
53748;DHT22;39655;53.210;5.768;2022-08-07T06:40:22;15.30;79.80
53748;DHT22;39655;53.210;5.768;2022-08-07T06:42:48;15.40;79.60
53748;DHT22;39655;53.210;5.768;2022-08-07T06:45:17;15.40;79.70
53748;DHT22;39655;53.210;5.768;2022-08-07T06:47:45;15.50;80.20
53748;DHT22;39655;53.210;5.768;2022-08-07T06:50:12;15.50;80.00
53748;DHT22;39655;53.210;5.768;2022-08-07T06:52:41;15.60;80.30
53748;DHT22;39655;53.210;5.768;2022-08-07T06:55:12;15.60;80.20
53748;DHT22;39655;53.210;5.768;2022-08-07T06:57:40;15.80;80.30
53748;DHT22;39655;53.210;5.768;2022-08-07T07:00:06;15.90;80.00
53748;DHT22;39655;53.210;5.768;2022-08-07T07:02:33;15.90;79.80
53748;DHT22;39655;53.210;5.768;2022-08-07T07:05:01;16.00;79.90
53748;DHT22;39655;53.210;5.768;2022-08-07T07:07:27;16.10;79.80
53748;DHT22;39655;53.210;5.768;2022-08-07T07:09:53;16.10;78.50
53748;DHT22;39655;53.210;5.768;2022-08-07T07:15:15;16.30;76.20
53748;DHT22;39655;53.210;5.768;2022-08-07T07:18:14;16.40;74.90
53748;DHT22;39655;53.210;5.768;2022-08-07T07:23:10;16.60;75.30
53748;DHT22;39655;53.210;5.768;2022-08-07T07:25:38;16.60;75.40
53748;DHT22;39655;53.210;5.768;2022-08-07T07:28:28;16.70;75.40
53748;DHT22;39655;53.210;5.768;2022-08-07T07:30:59;16.80;73.40
53748;DHT22;39655;53.210;5.768;2022-08-07T07:33:25;16.80;73.30
53748;DHT22;39655;53.210;5.768;2022-08-07T07:35:53;16.90;74.10
53748;DHT22;39655;53.210;5.768;2022-08-07T07:38:21;17.00;73.40
53748;DHT22;39655;53.210;5.768;2022-08-07T07:40:48;17.00;72.80
53748;DHT22;39655;53.210;5.768;2022-08-07T07:43:16;17.10;73.20
53748;DHT22;39655;53.210;5.768;2022-08-07T07:45:44;17.10;72.60
53748;DHT22;39655;53.210;5.768;2022-08-07T07:48:13;17.20;72.00
53748;DHT22;39655;53.210;5.768;2022-08-07T07:50:39;17.20;72.40
53748;DHT22;39655;53.210;5.768;2022-08-07T07:53:07;17.40;71.80
53748;DHT22;39655;53.210;5.768;2022-08-07T07:55:33;17.40;71.80
53748;DHT22;39655;53.210;5.768;2022-08-07T07:58:00;17.40;71.50
53748;DHT22;39655;53.210;5.768;2022-08-07T08:00:28;17.50;71.80
53748;DHT22;39655;53.210;5.768;2022-08-07T08:02:57;17.60;69.90
53748;DHT22;39655;53.210;5.768;2022-08-07T08:05:23;17.60;70.40
53748;DHT22;39655;53.210;5.768;2022-08-07T08:07:49;17.60;70.50
53748;DHT22;39655;53.210;5.768;2022-08-07T08:10:16;17.60;71.00
53748;DHT22;39655;53.210;5.768;2022-08-07T08:12:44;17.70;71.30
53748;DHT22;39655;53.210;5.768;2022-08-07T08:15:10;17.80;71.30
53748;DHT22;39655;53.210;5.768;2022-08-07T08:17:36;17.80;69.90
53748;DHT22;39655;53.210;5.768;2022-08-07T08:20:06;18.00;70.30
53748;DHT22;39655;53.210;5.768;2022-08-07T08:22:35;18.10;69.30
53748;DHT22;39655;53.210;5.768;2022-08-07T08:25:21;18.20;68.00
53748;DHT22;39655;53.210;5.768;2022-08-07T08:28:10;18.20;67.60
53748;DHT22;39655;53.210;5.768;2022-08-07T08:30:36;18.20;68.40
53748;DHT22;39655;53.210;5.768;2022-08-07T08:33:05;18.30;67.80
53748;DHT22;39655;53.210;5.768;2022-08-07T08:35:33;18.20;67.80
53748;DHT22;39655;53.210;5.768;2022-08-07T08:38:02;18.20;68.60
53748;DHT22;39655;53.210;5.768;2022-08-07T08:40:31;18.30;67.90
53748;DHT22;39655;53.210;5.768;2022-08-07T08:48:50;18.50;67.60
53748;DHT22;39655;53.210;5.768;2022-08-07T08:51:30;18.60;66.70
53748;DHT22;39655;53.210;5.768;2022-08-07T08:56:32;18.70;67.00
53748;DHT22;39655;53.210;5.768;2022-08-07T09:02:18;18.70;67.00
53748;DHT22;39655;53.210;5.768;2022-08-07T09:07:46;18.70;64.40
53748;DHT22;39655;53.210;5.768;2022-08-07T09:18:32;18.70;65.10
53748;DHT22;39655;53.210;5.768;2022-08-07T09:32:12;19.20;63.50
53748;DHT22;39655;53.210;5.768;2022-08-07T09:37:33;19.50;62.60
53748;DHT22;39655;53.210;5.768;2022-08-07T09:40:14;19.60;64.10
53748;DHT22;39655;53.210;5.768;2022-08-07T09:42:59;19.80;62.90
53748;DHT22;39655;53.210;5.768;2022-08-07T09:45:41;19.90;62.60
53748;DHT22;39655;53.210;5.768;2022-08-07T09:51:22;20.10;60.30
53748;DHT22;39655;53.210;5.768;2022-08-07T09:53:55;20.00;61.40
53748;DHT22;39655;53.210;5.768;2022-08-07T09:57:03;19.80;61.70
53748;DHT22;39655;53.210;5.768;2022-08-07T09:59:40;19.90;62.40
53748;DHT22;39655;53.210;5.768;2022-08-07T10:02:24;20.00;61.70
53748;DHT22;39655;53.210;5.768;2022-08-07T10:10:52;19.60;61.20
53748;DHT22;39655;53.210;5.768;2022-08-07T10:16:33;19.90;62.40
53748;DHT22;39655;53.210;5.768;2022-08-07T10:19:27;20.10;59.80
53748;DHT22;39655;53.210;5.768;2022-08-07T10:34:11;20.00;58.80
53748;DHT22;39655;53.210;5.768;2022-08-07T10:42:16;20.40;57.00
53748;DHT22;39655;53.210;5.768;2022-08-07T10:45:08;20.30;57.30
53748;DHT22;39655;53.210;5.768;2022-08-07T10:50:28;20.60;55.10
53748;DHT22;39655;53.210;5.768;2022-08-07T10:53:06;20.80;55.50
53748;DHT22;39655;53.210;5.768;2022-08-07T10:58:23;20.90;51.80
53748;DHT22;39655;53.210;5.768;2022-08-07T11:01:02;20.90;51.20
53748;DHT22;39655;53.210;5.768;2022-08-07T11:03:41;20.70;51.10
53748;DHT22;39655;53.210;5.768;2022-08-07T11:06:30;20.70;51.60
53748;DHT22;39655;53.210;5.768;2022-08-07T11:09:16;20.90;51.60
53748;DHT22;39655;53.210;5.768;2022-08-07T11:12:05;20.90;51.10
53748;DHT22;39655;53.210;5.768;2022-08-07T11:14:53;21.00;51.80
53748;DHT22;39655;53.210;5.768;2022-08-07T11:17:47;21.10;52.00
53748;DHT22;39655;53.210;5.768;2022-08-07T11:20:21;21.30;52.20
53748;DHT22;39655;53.210;5.768;2022-08-07T11:25:43;21.50;51.40
53748;DHT22;39655;53.210;5.768;2022-08-07T11:28:18;21.60;52.00
53748;DHT22;39655;53.210;5.768;2022-08-07T11:33:32;21.60;49.10
53748;DHT22;39655;53.210;5.768;2022-08-07T11:36:12;21.80;49.00
53748;DHT22;39655;53.210;5.768;2022-08-07T11:38:59;21.80;48.00
53748;DHT22;39655;53.210;5.768;2022-08-07T11:41:34;21.60;47.90
53748;DHT22;39655;53.210;5.768;2022-08-07T11:47:35;22.10;47.20
53748;DHT22;39655;53.210;5.768;2022-08-07T11:53:26;22.50;47.30
53748;DHT22;39655;53.210;5.768;2022-08-07T11:56:14;22.50;46.70
53748;DHT22;39655;53.210;5.768;2022-08-07T11:59:07;22.80;45.60
53748;DHT22;39655;53.210;5.768;2022-08-07T12:01:49;23.30;46.60
53748;DHT22;39655;53.210;5.768;2022-08-07T12:04:52;23.70;43.90
53748;DHT22;39655;53.210;5.768;2022-08-07T12:07:39;23.50;43.70
53748;DHT22;39655;53.210;5.768;2022-08-07T12:10:16;23.10;44.60
53748;DHT22;39655;53.210;5.768;2022-08-07T12:12:50;23.20;46.00
53748;DHT22;39655;53.210;5.768;2022-08-07T12:15:23;23.40;43.80
53748;DHT22;39655;53.210;5.768;2022-08-07T12:17:59;23.30;45.10
53748;DHT22;39655;53.210;5.768;2022-08-07T12:20:48;23.10;46.20
53748;DHT22;39655;53.210;5.768;2022-08-07T12:23:38;22.90;47.60
53748;DHT22;39655;53.210;5.768;2022-08-07T12:26:33;22.90;47.40
53748;DHT22;39655;53.210;5.768;2022-08-07T12:29:11;22.90;45.20
53748;DHT22;39655;53.210;5.768;2022-08-07T12:34:28;22.60;48.30
53748;DHT22;39655;53.210;5.768;2022-08-07T12:36:55;22.50;49.10
53748;DHT22;39655;53.210;5.768;2022-08-07T12:39:23;22.60;49.80
53748;DHT22;39655;53.210;5.768;2022-08-07T12:41:51;22.50;49.80
53748;DHT22;39655;53.210;5.768;2022-08-07T12:44:18;22.40;50.20
53748;DHT22;39655;53.210;5.768;2022-08-07T12:52:15;23.10;48.10
53748;DHT22;39655;53.210;5.768;2022-08-07T12:54:52;23.20;46.40
53748;DHT22;39655;53.210;5.768;2022-08-07T12:57:24;22.90;47.40
53748;DHT22;39655;53.210;5.768;2022-08-07T12:59:52;23.00;47.20
53748;DHT22;39655;53.210;5.768;2022-08-07T13:05:50;23.50;47.40
53748;DHT22;39655;53.210;5.768;2022-08-07T13:11:33;24.10;45.40
53748;DHT22;39655;53.210;5.768;2022-08-07T13:17:26;23.60;46.70
53748;DHT22;39655;53.210;5.768;2022-08-07T13:22:40;23.50;46.10
53748;DHT22;39655;53.210;5.768;2022-08-07T13:25:17;23.20;49.30
53748;DHT22;39655;53.210;5.768;2022-08-07T13:27:49;23.00;49.10
53748;DHT22;39655;53.210;5.768;2022-08-07T13:30:16;23.50;47.60
53748;DHT22;39655;53.210;5.768;2022-08-07T13:32:54;23.90;45.40
53748;DHT22;39655;53.210;5.768;2022-08-07T13:35:40;23.70;44.60
53748;DHT22;39655;53.210;5.768;2022-08-07T13:38:16;23.50;45.80
53748;DHT22;39655;53.210;5.768;2022-08-07T13:43:43;23.60;45.80
53748;DHT22;39655;53.210;5.768;2022-08-07T13:46:13;23.80;45.60
53748;DHT22;39655;53.210;5.768;2022-08-07T13:48:39;24.00;45.80
53748;DHT22;39655;53.210;5.768;2022-08-07T13:51:12;24.30;44.80
53748;DHT22;39655;53.210;5.768;2022-08-07T13:53:39;24.40;44.60
53748;DHT22;39655;53.210;5.768;2022-08-07T13:56:10;24.40;45.40
53748;DHT22;39655;53.210;5.768;2022-08-07T13:58:41;23.70;48.00
53748;DHT22;39655;53.210;5.768;2022-08-07T14:01:33;23.20;50.20
53748;DHT22;39655;53.210;5.768;2022-08-07T14:04:19;23.00;52.00
53748;DHT22;39655;53.210;5.768;2022-08-07T14:06:49;22.80;52.70
53748;DHT22;39655;53.210;5.768;2022-08-07T14:09:24;22.70;52.80
53748;DHT22;39655;53.210;5.768;2022-08-07T14:11:56;22.80;52.90
53748;DHT22;39655;53.210;5.768;2022-08-07T14:14:44;22.90;53.40
53748;DHT22;39655;53.210;5.768;2022-08-07T14:17:13;23.20;52.30
53748;DHT22;39655;53.210;5.768;2022-08-07T14:19:55;23.60;50.80
53748;DHT22;39655;53.210;5.768;2022-08-07T14:22:24;23.60;51.80
53748;DHT22;39655;53.210;5.768;2022-08-07T14:24:57;23.20;51.70
53748;DHT22;39655;53.210;5.768;2022-08-07T14:27:32;22.80;52.70
53748;DHT22;39655;53.210;5.768;2022-08-07T14:30:05;22.60;53.10
53748;DHT22;39655;53.210;5.768;2022-08-07T14:32:36;22.70;54.00
53748;DHT22;39655;53.210;5.768;2022-08-07T14:35:02;23.00;51.90
53748;DHT22;39655;53.210;5.768;2022-08-07T14:37:29;23.60;52.30
53748;DHT22;39655;53.210;5.768;2022-08-07T14:40:01;23.60;50.80
53748;DHT22;39655;53.210;5.768;2022-08-07T14:42:28;23.60;49.60
53748;DHT22;39655;53.210;5.768;2022-08-07T14:45:02;23.50;50.80
53748;DHT22;39655;53.210;5.768;2022-08-07T14:47:30;23.30;50.90
53748;DHT22;39655;53.210;5.768;2022-08-07T14:49:57;22.90;52.40
53748;DHT22;39655;53.210;5.768;2022-08-07T14:52:23;22.70;51.40
53748;DHT22;39655;53.210;5.768;2022-08-07T14:54:50;22.60;52.70
53748;DHT22;39655;53.210;5.768;2022-08-07T14:57:17;22.50;55.70
53748;DHT22;39655;53.210;5.768;2022-08-07T14:59:45;22.40;56.50
53748;DHT22;39655;53.210;5.768;2022-08-07T15:02:22;22.30;56.20
53748;DHT22;39655;53.210;5.768;2022-08-07T15:04:51;22.60;55.00
53748;DHT22;39655;53.210;5.768;2022-08-07T15:07:19;23.10;53.40
53748;DHT22;39655;53.210;5.768;2022-08-07T15:09:47;23.70;52.30
53748;DHT22;39655;53.210;5.768;2022-08-07T15:12:27;24.10;49.60
53748;DHT22;39655;53.210;5.768;2022-08-07T15:15:00;24.30;48.90
53748;DHT22;39655;53.210;5.768;2022-08-07T15:17:32;24.10;49.80
53748;DHT22;39655;53.210;5.768;2022-08-07T15:20:04;24.30;50.30
53748;DHT22;39655;53.210;5.768;2022-08-07T15:22:43;24.40;49.60
53748;DHT22;39655;53.210;5.768;2022-08-07T15:25:13;25.00;49.50
53748;DHT22;39655;53.210;5.768;2022-08-07T15:27:41;25.30;49.40
53748;DHT22;39655;53.210;5.768;2022-08-07T15:30:10;25.50;49.50
53748;DHT22;39655;53.210;5.768;2022-08-07T15:32:55;25.70;48.80
53748;DHT22;39655;53.210;5.768;2022-08-07T15:35:24;25.60;49.80
53748;DHT22;39655;53.210;5.768;2022-08-07T15:37:54;25.50;51.00
53748;DHT22;39655;53.210;5.768;2022-08-07T15:40:22;25.00;49.80
53748;DHT22;39655;53.210;5.768;2022-08-07T15:42:54;24.40;52.60
53748;DHT22;39655;53.210;5.768;2022-08-07T15:48:21;24.50;53.40
53748;DHT22;39655;53.210;5.768;2022-08-07T15:50:50;24.00;53.60
53748;DHT22;39655;53.210;5.768;2022-08-07T15:53:27;23.40;55.40
53748;DHT22;39655;53.210;5.768;2022-08-07T15:55:59;23.10;55.70
53748;DHT22;39655;53.210;5.768;2022-08-07T15:58:53;23.00;56.20
53748;DHT22;39655;53.210;5.768;2022-08-07T16:01:29;23.60;55.00
53748;DHT22;39655;53.210;5.768;2022-08-07T16:03:58;23.80;54.90
53748;DHT22;39655;53.210;5.768;2022-08-07T16:06:43;24.40;53.20
53748;DHT22;39655;53.210;5.768;2022-08-07T16:23:11;25.60;48.40
53748;DHT22;39655;53.210;5.768;2022-08-07T16:26:14;24.90;49.50
53748;DHT22;39655;53.210;5.768;2022-08-07T16:29:20;25.10;50.40
53748;DHT22;39655;53.210;5.768;2022-08-07T16:31:58;25.60;49.30
53748;DHT22;39655;53.210;5.768;2022-08-07T16:34:53;26.10;47.10
53748;DHT22;39655;53.210;5.768;2022-08-07T16:40:42;26.00;47.90
53748;DHT22;39655;53.210;5.768;2022-08-07T16:46:16;26.70;44.40
53748;DHT22;39655;53.210;5.768;2022-08-07T16:54:51;27.60;42.70
53748;DHT22;39655;53.210;5.768;2022-08-07T17:00:17;28.00;41.40
53748;DHT22;39655;53.210;5.768;2022-08-07T17:05:41;28.30;40.80
53748;DHT22;39655;53.210;5.768;2022-08-07T17:08:17;28.20;40.50
53748;DHT22;39655;53.210;5.768;2022-08-07T17:10:52;27.90;41.30
53748;DHT22;39655;53.210;5.768;2022-08-07T17:16:06;27.30;42.30
53748;DHT22;39655;53.210;5.768;2022-08-07T17:19:21;27.60;41.90
53748;DHT22;39655;53.210;5.768;2022-08-07T17:21:32;27.70;41.50
53748;DHT22;39655;53.210;5.768;2022-08-07T17:27:01;28.10;40.10
53748;DHT22;39655;53.210;5.768;2022-08-07T17:32:17;28.20;40.20
53748;DHT22;39655;53.210;5.768;2022-08-07T17:34:54;28.40;40.00
53748;DHT22;39655;53.210;5.768;2022-08-07T17:37:45;28.60;38.90
53748;DHT22;39655;53.210;5.768;2022-08-07T17:43:12;28.30;39.20
53748;DHT22;39655;53.210;5.768;2022-08-07T17:48:32;27.50;40.60
53748;DHT22;39655;53.210;5.768;2022-08-07T17:51:30;27.50;40.50
53748;DHT22;39655;53.210;5.768;2022-08-07T17:54:18;28.10;39.60
53748;DHT22;39655;53.210;5.768;2022-08-07T17:57:21;28.30;39.00
53748;DHT22;39655;53.210;5.768;2022-08-07T17:59:55;28.00;39.60
53748;DHT22;39655;53.210;5.768;2022-08-07T18:05:30;27.60;40.40
53748;DHT22;39655;53.210;5.768;2022-08-07T18:08:13;27.70;39.90
53748;DHT22;39655;53.210;5.768;2022-08-07T18:10:55;27.70;40.20
53748;DHT22;39655;53.210;5.768;2022-08-07T18:13:36;27.40;40.70
53748;DHT22;39655;53.210;5.768;2022-08-07T18:16:13;27.10;41.10
53748;DHT22;39655;53.210;5.768;2022-08-07T18:18:50;27.10;41.50
53748;DHT22;39655;53.210;5.768;2022-08-07T18:21:26;27.10;41.40
53748;DHT22;39655;53.210;5.768;2022-08-07T18:29:56;26.90;41.90
53748;DHT22;39655;53.210;5.768;2022-08-07T18:32:36;25.90;44.10
53748;DHT22;39655;53.210;5.768;2022-08-07T18:35:08;24.70;47.10
53748;DHT22;39655;53.210;5.768;2022-08-07T18:43:56;23.00;52.40
53748;DHT22;39655;53.210;5.768;2022-08-07T18:46:39;22.70;53.30
53748;DHT22;39655;53.210;5.768;2022-08-07T18:49:26;22.50;54.30
53748;DHT22;39655;53.210;5.768;2022-08-07T19:00:20;22.00;56.10
53748;DHT22;39655;53.210;5.768;2022-08-07T19:02:57;22.00;56.40
53748;DHT22;39655;53.210;5.768;2022-08-07T19:05:38;21.80;57.10
53748;DHT22;39655;53.210;5.768;2022-08-07T19:08:58;21.60;57.80
53748;DHT22;39655;53.210;5.768;2022-08-07T19:11:05;21.50;58.20